Time;durP1;ratioP1;P1;durP2;ratioP2;P2;SDS_P1;SDS_P2;PMS_P1;PMS_P2;Temp;Humidity;BMP_temperature;BMP_pressure;BME280_temperature;BME280_humidity;BME280_pressure;Samples;Min_cycle;Max_cycle;Signal;HPM_P1;HPM_P2
2023/07/04 00:01:09;;;;;;;5.63;1.85;;;;;;;18.06;52.34;101068.88;4987503;28;118824;-71
2023/07/04 00:03:42;;;;;;;6.35;1.98;;;;;;;18.00;52.70;101063.94;4977882;28;123729;-70
2023/07/04 00:06:12;;;;;;;3.88;1.77;;;;;;;17.96;52.34;101057.09;4952163;28;123646;-70
2023/07/04 00:08:39;;;;;;;5.88;1.70;;;;;;;17.95;52.28;101060.78;4986852;28;119716;-71
2023/07/04 00:11:08;;;;;;;5.47;1.60;;;;;;;17.92;52.39;101055.63;4966223;28;120226;-71
2023/07/04 00:13:37;;;;;;;3.92;1.58;;;;;;;17.91;52.38;101053.88;4974626;28;123916;-70
2023/07/04 00:16:06;;;;;;;5.03;1.48;;;;;;;17.90;52.13;101057.56;4986456;28;124272;-71
2023/07/04 00:18:36;;;;;;;5.03;1.60;;;;;;;17.88;52.27;101054.13;4968644;28;120276;-71
2023/07/04 00:21:06;;;;;;;5.10;1.48;;;;;;;17.86;52.17;101053.38;4968653;28;120282;-71
2023/07/04 00:23:35;;;;;;;4.88;1.60;;;;;;;17.86;52.37;101058.75;4986212;28;124203;-71
2023/07/04 00:26:06;;;;;;;6.10;1.70;;;;;;;17.89;52.34;101045.09;4967937;28;123480;-71
2023/07/04 00:28:38;;;;;;;3.47;1.33;;;;;;;17.89;52.43;101039.75;4970245;28;119556;-71
2023/07/04 00:31:07;;;;;;;3.03;1.20;;;;;;;17.90;52.29;101030.75;4975805;28;120956;-70
2023/07/04 00:33:35;;;;;;;2.08;1.20;;;;;;;17.90;52.18;101036.13;4996284;28;124457;-70
2023/07/04 00:36:15;;;;;;;6.32;1.55;;;;;;;17.89;52.38;101032.59;4968726;28;124799;-71
2023/07/04 00:38:44;;;;;;;4.43;1.40;;;;;;;17.88;52.24;101027.34;4983649;28;119226;-71
2023/07/04 00:41:20;;;;;;;2.97;1.55;;;;;;;17.86;52.42;101034.63;4951629;28;118569;-71
2023/07/04 00:44:19;;;;;;;5.57;1.52;;;;;;;17.88;52.41;101027.34;4970891;28;124158;-71
2023/07/04 00:47:10;;;;;;;5.90;1.60;;;;;;;17.88;52.32;101032.69;4968084;28;125015;-71
2023/07/04 00:49:42;;;;;;;4.45;1.58;;;;;;;17.88;52.31;101027.34;4985416;28;119575;-72
2023/07/04 00:52:14;;;;;;;4.95;1.65;;;;;;;17.90;52.49;101028.09;4968259;28;118661;-71
2023/07/04 00:54:52;;;;;;;6.13;1.55;;;;;;;17.91;52.49;101027.09;4963733;28;123178;-71
2023/07/04 00:57:31;;;;;;;7.05;1.50;;;;;;;17.92;52.39;101023.47;4965637;28;123903;-71
2023/07/04 01:00:10;;;;;;;4.80;1.63;;;;;;;17.93;52.66;101021.63;4976902;28;118243;-71
2023/07/04 01:02:37;;;;;;;3.88;1.50;;;;;;;17.92;52.46;101012.75;4975845;28;118336;-71
2023/07/04 01:05:06;;;;;;;3.80;1.40;;;;;;;17.93;52.56;101014.44;5007248;28;124077;-71
2023/07/04 01:07:45;;;;;;;4.70;1.05;;;;;;;17.95;52.58;101017.00;4971664;28;122891;-71
2023/07/04 01:10:20;;;;;;;7.22;1.88;;;;;;;17.96;52.76;101014.22;4986104;28;119940;-71
2023/07/04 01:12:48;;;;;;;3.78;1.42;;;;;;;17.98;52.66;101017.66;5001125;28;120868;-72
2023/07/04 01:15:16;;;;;;;4.63;1.45;;;;;;;17.98;52.58;101012.28;4988576;28;123947;-71
2023/07/04 01:17:43;;;;;;;3.42;1.48;;;;;;;17.98;52.61;101023.00;4973539;28;123960;-71
2023/07/04 01:20:15;;;;;;;5.15;1.50;;;;;;;17.96;52.65;101019.59;4971820;28;118478;-71
2023/07/04 01:23:08;;;;;;;6.43;1.90;;;;;;;17.93;52.77;101014.44;4976484;28;118020;-71
2023/07/04 01:25:50;;;;;;;6.00;1.80;;;;;;;17.90;52.54;101014.69;4988775;28;124111;-71
2023/07/04 01:28:19;;;;;;;4.20;1.67;;;;;;;17.86;52.62;101002.47;4981639;28;123585;-71
2023/07/04 01:30:47;;;;;;;3.35;1.60;;;;;;;17.84;52.76;101021.34;4989010;28;119021;-71
2023/07/04 01:33:15;;;;;;;3.35;1.50;;;;;;;17.82;52.75;101019.69;4984200;28;118799;-71
2023/07/04 01:35:45;;;;;;;3.92;1.48;;;;;;;17.79;52.90;101022.63;4985639;28;124402;-70
2023/07/04 01:38:14;;;;;;;4.53;1.92;;;;;;;17.75;53.03;101015.78;4971352;28;123571;-70
2023/07/04 01:40:42;;;;;;;4.00;1.90;;;;;;;17.69;52.92;101015.25;4970735;28;118635;-71
2023/07/04 01:43:09;;;;;;;5.65;1.73;;;;;;;17.65;52.94;101013.75;4989266;28;119556;-70
2023/07/04 01:45:36;;;;;;;3.30;1.90;;;;;;;17.61;52.99;101019.44;4997055;28;124385;-70
2023/07/04 01:48:04;;;;;;;4.45;1.90;;;;;;;17.57;53.07;101018.78;4992052;28;123250;-70
2023/07/04 01:50:32;;;;;;;4.43;1.83;;;;;;;17.53;53.15;101017.31;5004621;28;120260;-71
2023/07/04 01:52:59;;;;;;;10.73;2.33;;;;;;;17.51;53.11;101019.25;4978250;28;117747;-71
2023/07/04 01:55:27;;;;;;;5.32;2.17;;;;;;;17.48;53.30;101024.84;4997159;28;124292;-70
2023/07/04 01:57:54;;;;;;;7.97;2.35;;;;;;;17.45;53.43;101023.22;4989028;28;124294;-71
2023/07/04 02:00:22;;;;;;;9.85;2.58;;;;;;;17.43;53.52;101026.97;4970572;28;119426;-71
2023/07/04 02:02:56;;;;;;;11.30;2.70;;;;;;;17.43;53.19;101022.47;4974034;28;120437;-70
2023/07/04 02:05:24;;;;;;;10.00;2.80;;;;;;;17.42;53.45;101035.97;4978534;28;124512;-71
2023/07/04 02:07:51;;;;;;;9.30;2.78;;;;;;;17.41;53.62;101039.63;4970582;28;124105;-71
2023/07/04 02:10:18;;;;;;;10.60;2.90;;;;;;;17.39;53.73;101030.84;4970917;28;118332;-70
2023/07/04 02:12:46;;;;;;;8.00;2.80;;;;;;;17.38;53.61;101047.84;4953635;28;118899;-71
2023/07/04 02:15:13;;;;;;;8.48;3.28;;;;;;;17.38;53.98;101035.31;4970050;28;124258;-70
2023/07/04 02:17:40;;;;;;;9.68;3.28;;;;;;;17.41;54.16;101028.91;4970606;28;123723;-71
2023/07/04 02:20:08;;;;;;;12.00;3.08;;;;;;;17.43;54.29;101037.69;4992300;28;119749;-71
2023/07/04 02:22:36;;;;;;;9.70;3.25;;;;;;;17.45;54.21;101041.94;4990786;28;119442;-71
2023/07/04 02:25:03;;;;;;;11.35;3.35;;;;;;;17.48;54.56;101030.19;4987836;28;123790;-70
2023/07/04 02:27:30;;;;;;;9.90;3.15;;;;;;;17.49;54.49;101026.53;4970240;28;122981;-71
2023/07/04 02:29:57;;;;;;;10.05;3.10;;;;;;;17.53;54.72;101033.38;4969698;28;118257;-70
2023/07/04 02:32:24;;;;;;;7.13;3.20;;;;;;;17.57;54.75;101034.84;4970074;28;118356;-70
2023/07/04 02:34:53;;;;;;;11.32;3.33;;;;;;;17.60;55.02;101021.25;4988399;28;124662;-70
2023/07/04 02:37:21;;;;;;;15.20;3.55;;;;;;;17.64;54.81;101030.78;4969663;28;122531;-71
2023/07/04 02:39:49;;;;;;;11.07;3.03;;;;;;;17.68;55.00;101034.94;4988267;28;120306;-71
2023/07/04 02:42:17;;;;;;;10.20;3.58;;;;;;;17.73;54.85;101041.81;4988499;28;118479;-71
2023/07/04 02:44:45;;;;;;;9.15;3.47;;;;;;;17.75;54.73;101047.91;4984839;28;123518;-71
2023/07/04 02:47:12;;;;;;;9.85;2.83;;;;;;;17.79;54.88;101044.03;4967107;28;124813;-71
2023/07/04 02:49:41;;;;;;;10.77;3.58;;;;;;;17.83;55.00;101034.81;4952945;28;121360;-70
2023/07/04 02:52:11;;;;;;;11.77;3.35;;;;;;;17.88;55.16;101032.69;4969793;28;119359;-71
2023/07/04 02:54:38;;;;;;;7.97;2.67;;;;;;;17.92;54.93;101034.19;4994324;28;124108;-71
2023/07/04 02:57:06;;;;;;;7.93;2.75;;;;;;;17.96;54.90;101035.66;4994629;28;124300;-71
2023/07/04 02:59:33;;;;;;;11.68;3.47;;;;;;;17.98;55.09;101025.69;4957534;28;119910;-71
2023/07/04 03:02:00;;;;;;;11.98;3.22;;;;;;;18.02;55.22;101019.13;4976523;28;117814;-71
2023/07/04 03:04:27;;;;;;;7.85;2.67;;;;;;;18.04;55.06;101022.53;4973734;28;122280;-71
2023/07/04 03:06:57;;;;;;;9.20;3.08;;;;;;;18.04;55.10;101017.19;4966376;28;123003;-71
2023/07/04 03:09:25;;;;;;;8.75;2.95;;;;;;;18.06;55.30;101015.28;4970077;28;118476;-71
2023/07/04 03:11:54;;;;;;;11.88;2.88;;;;;;;18.07;55.12;101011.59;4953144;28;117912;-71
2023/07/04 03:14:23;;;;;;;8.38;3.20;;;;;;;18.12;55.24;101013.09;4952244;28;124104;-71
2023/07/04 03:16:51;;;;;;;10.27;3.20;;;;;;;18.13;55.07;101004.09;4968701;28;123826;-71
2023/07/04 03:19:19;;;;;;;8.73;3.17;;;;;;;18.15;55.04;101010.19;4969364;28;118469;-71
2023/07/04 03:21:47;;;;;;;9.10;3.22;;;;;;;18.16;55.22;101022.59;4968501;28;118686;-70
2023/07/04 03:24:15;;;;;;;11.88;3.50;;;;;;;18.15;55.13;101015.56;4967616;28;123255;-71
2023/07/04 03:26:45;;;;;;;11.30;3.42;;;;;;;18.14;54.99;101021.88;4952629;28;123015;-71
2023/07/04 03:29:13;;;;;;;16.75;3.83;;;;;;;18.14;55.00;101032.59;4968486;28;118702;-70
2023/07/04 03:31:41;;;;;;;11.43;3.67;;;;;;;18.13;55.22;101031.75;4968788;28;119842;-71
2023/07/04 03:34:11;;;;;;;11.57;3.72;;;;;;;18.14;55.23;101032.59;4979322;28;123054;-71
2023/07/04 03:36:38;;;;;;;9.63;3.53;;;;;;;18.13;55.05;101026.38;4985836;28;123684;-70
2023/07/04 03:39:06;;;;;;;9.45;4.10;;;;;;;18.14;55.37;101021.88;4966740;28;120161;-71
2023/07/04 03:41:33;;;;;;;13.02;3.95;;;;;;;18.15;55.34;101034.31;4985722;28;119884;-71
2023/07/04 03:44:01;;;;;;;11.70;3.80;;;;;;;18.14;55.39;101027.22;4965843;28;123921;-72
2023/07/04 03:46:28;;;;;;;12.20;3.83;;;;;;;18.15;55.52;101034.31;4997793;28;124141;-71
2023/07/04 03:48:55;;;;;;;13.30;3.85;;;;;;;18.17;55.46;101027.00;4969111;28;118870;-71
2023/07/04 03:51:22;;;;;;;13.20;4.28;;;;;;;18.19;55.34;101035.78;4984734;28;119445;-71
2023/07/04 03:53:50;;;;;;;11.88;3.83;;;;;;;18.21;55.42;101029.34;4968862;28;124549;-71
2023/07/04 03:56:17;;;;;;;12.00;4.53;;;;;;;18.22;55.58;101032.91;4987988;28;123962;-71
2023/07/04 03:58:44;;;;;;;11.60;3.92;;;;;;;18.21;55.54;101036.53;4987294;28;119073;-71
2023/07/04 04:01:11;;;;;;;11.25;3.75;;;;;;;18.20;55.37;101037.53;4968455;28;119525;-71
2023/07/04 04:03:38;;;;;;;11.10;3.65;;;;;;;18.17;55.57;101048.47;4985976;28;124088;-71
2023/07/04 04:06:07;;;;;;;14.32;4.28;;;;;;;18.14;55.39;101044.19;4987023;28;124294;-71
2023/07/04 04:08:35;;;;;;;10.32;3.92;;;;;;;18.13;55.58;101052.34;4969014;28;119003;-71
2023/07/04 04:11:03;;;;;;;9.98;3.67;;;;;;;18.12;55.52;101034.53;4969669;28;119813;-71
2023/07/04 04:13:30;;;;;;;13.52;3.85;;;;;;;18.09;55.60;101041.84;4980067;28;123755;-71
2023/07/04 04:15:58;;;;;;;12.25;3.67;;;;;;;18.08;55.65;101050.84;4952738;28;122770;-70
2023/07/04 04:18:25;;;;;;;10.10;3.65;;;;;;;18.06;55.51;101058.16;4988310;28;119436;-70
2023/07/04 04:20:52;;;;;;;10.98;3.53;;;;;;;18.06;55.49;101054.59;5010128;28;118877;-71
2023/07/04 04:23:22;;;;;;;13.73;3.22;;;;;;;18.04;55.64;101049.34;4997427;28;123795;-71
2023/07/04 04:25:49;;;;;;;8.48;3.40;;;;;;;18.03;55.56;101047.66;4968849;28;123337;-71
2023/07/04 04:28:16;;;;;;;8.55;3.65;;;;;;;18.03;55.62;101042.28;4967918;28;119512;-71
2023/07/04 04:30:43;;;;;;;12.50;3.35;;;;;;;18.03;55.60;101044.97;4986566;28;120567;-71
2023/07/04 04:33:11;;;;;;;16.77;3.90;;;;;;;18.04;55.57;101038.63;4983514;28;124006;-71
2023/07/04 04:35:42;;;;;;;11.63;4.10;;;;;;;18.05;55.67;101055.59;4986800;28;123478;-71
2023/07/04 04:38:10;;;;;;;12.02;3.33;;;;;;;18.06;55.51;101047.44;4971287;28;119160;-71
2023/07/04 04:40:40;;;;;;;13.25;3.67;;;;;;;18.07;55.64;101054.50;4992771;28;119489;-70
2023/07/04 04:43:08;;;;;;;11.68;3.58;;;;;;;18.09;55.48;101057.06;4995667;28;124221;-71
2023/07/04 04:45:36;;;;;;;12.70;3.10;;;;;;;18.09;55.60;101057.91;4994793;28;123862;-71
2023/07/04 04:48:06;;;;;;;14.85;3.80;;;;;;;18.11;55.38;101065.84;4969475;28;119135;-71
2023/07/04 04:50:35;;;;;;;9.73;4.00;;;;;;;18.14;55.82;101064.75;4976123;28;118261;-71
2023/07/04 04:53:02;;;;;;;11.55;3.80;;;;;;;18.17;56.10;101059.19;4986296;28;123878;-71
2023/07/04 04:55:29;;;;;;;10.73;3.40;;;;;;;18.23;56.09;101064.09;4988974;28;123916;-71
2023/07/04 04:57:57;;;;;;;9.73;3.70;;;;;;;18.31;56.34;101061.72;4986628;28;120663;-71
2023/07/04 05:00:24;;;;;;;17.00;3.88;;;;;;;18.36;56.25;101059.53;4986912;28;119569;-71
2023/07/04 05:02:51;;;;;;;16.30;3.90;;;;;;;18.42;56.28;101064.44;4984622;28;124049;-71
2023/07/04 05:05:19;;;;;;;15.20;3.83;;;;;;;18.47;56.28;101064.94;4986183;28;124771;-71
2023/07/04 05:07:46;;;;;;;13.98;3.88;;;;;;;18.53;56.46;101070.81;4986367;28;119635;-71
2023/07/04 05:10:13;;;;;;;14.32;3.85;;;;;;;18.59;56.36;101073.03;4986910;28;118728;-71
2023/07/04 05:12:41;;;;;;;16.15;4.45;;;;;;;18.65;56.51;101072.59;4986485;28;124143;-72
2023/07/04 05:15:09;;;;;;;12.25;3.70;;;;;;;18.70;56.33;101078.44;4968001;28;123916;-70
2023/07/04 05:17:36;;;;;;;15.02;4.60;;;;;;;18.77;56.31;101074.34;4985767;28;120857;-71
2023/07/04 05:20:05;;;;;;;12.15;3.75;;;;;;;18.81;56.27;101070.47;4980479;28;119846;-71
2023/07/04 05:22:33;;;;;;;15.93;3.83;;;;;;;18.85;56.11;101071.97;4985687;28;123937;-71
2023/07/04 05:25:00;;;;;;;13.40;4.05;;;;;;;18.91;56.11;101075.13;4984200;28;124125;-70
2023/07/04 05:27:27;;;;;;;14.68;3.80;;;;;;;18.94;56.07;101082.97;4986432;28;119433;-71
2023/07/04 05:29:54;;;;;;;16.10;4.00;;;;;;;18.95;55.86;101071.25;4986233;28;118159;-71
2023/07/04 05:32:22;;;;;;;17.50;4.13;;;;;;;18.95;56.10;101077.50;4967446;28;123498;-71
2023/07/04 05:34:49;;;;;;;14.48;4.20;;;;;;;18.97;55.93;101080.06;4984869;28;124299;-70
2023/07/04 05:37:16;;;;;;;14.95;3.95;;;;;;;19.00;56.05;101069.06;4987983;28;118098;-71
2023/07/04 05:39:44;;;;;;;15.32;4.10;;;;;;;19.01;55.80;101076.16;4968583;28;119761;-71
2023/07/04 05:42:11;;;;;;;16.45;4.50;;;;;;;19.01;55.82;101086.91;4956788;28;123267;-71
2023/07/04 05:44:39;;;;;;;18.02;3.83;;;;;;;19.00;55.97;101079.81;4985253;28;124815;-71
2023/07/04 05:47:06;;;;;;;17.30;4.38;;;;;;;19.00;56.11;101085.16;4970355;28;118977;-71
2023/07/04 05:49:33;;;;;;;11.93;4.05;;;;;;;19.01;55.80;101086.91;4971903;28;118994;-71
2023/07/04 05:52:01;;;;;;;12.55;4.20;;;;;;;19.02;55.83;101084.09;4989498;28;124235;-71
2023/07/04 05:54:28;;;;;;;15.98;4.10;;;;;;;19.03;55.94;101084.94;4994054;28;125132;-71
2023/07/04 05:56:55;;;;;;;16.85;4.07;;;;;;;19.05;56.13;101088.38;4997520;28;119030;-71
2023/07/04 05:59:23;;;;;;;15.07;4.53;;;;;;;19.10;56.03;101086.19;4989448;28;118989;-71
2023/07/04 06:01:51;;;;;;;11.48;4.15;;;;;;;19.14;56.00;101082.28;4971376;28;123811;-71
2023/07/04 06:04:19;;;;;;;13.35;4.40;;;;;;;19.18;55.99;101083.75;4988695;28;123631;-71
2023/07/04 06:06:52;;;;;;;17.25;4.85;;;;;;;19.23;56.09;101081.56;4990421;28;120598;-71
2023/07/04 06:09:20;;;;;;;17.17;4.40;;;;;;;19.29;55.77;101087.44;4986666;28;120094;-71
2023/07/04 06:11:48;;;;;;;16.25;4.20;;;;;;;19.32;55.95;101089.88;4996152;28;124112;-70
2023/07/04 06:14:25;;;;;;;17.60;4.15;;;;;;;19.36;55.92;101096.72;4969706;28;122946;-70
2023/07/04 06:16:53;;;;;;;15.90;4.72;;;;;;;19.41;55.93;101089.16;4970120;28;120519;-70
2023/07/04 06:19:20;;;;;;;16.30;4.45;;;;;;;19.48;55.75;101092.22;4984667;28;119219;-70
2023/07/04 06:21:48;;;;;;;14.90;4.00;;;;;;;19.54;55.82;101100.66;4974917;28;125504;-70
2023/07/04 06:24:16;;;;;;;15.55;4.78;;;;;;;19.64;55.75;101103.47;4987702;28;123733;-70
2023/07/04 06:26:44;;;;;;;15.48;4.40;;;;;;;19.72;55.59;101108.22;4983044;28;120839;-70
2023/07/04 06:29:12;;;;;;;13.93;3.85;;;;;;;19.79;55.46;101115.72;4985335;28;119811;-70
2023/07/04 06:31:42;;;;;;;17.05;3.97;;;;;;;19.84;55.27;101115.34;4985761;28;123723;-70
2023/07/04 06:34:11;;;;;;;17.33;4.10;;;;;;;19.93;55.22;101113.75;4986216;28;123706;-71
2023/07/04 06:36:40;;;;;;;13.18;3.58;;;;;;;20.01;55.04;101104.09;4968247;28;119363;-71
2023/07/04 06:39:07;;;;;;;16.60;3.47;;;;;;;20.12;55.04;101118.53;4978537;28;118976;-71
2023/07/04 06:41:34;;;;;;;12.98;3.70;;;;;;;20.20;54.47;101124.13;4977129;28;122257;-71
2023/07/04 06:44:02;;;;;;;16.70;3.85;;;;;;;20.27;54.41;101119.97;4984411;28;125000;-71
2023/07/04 06:46:29;;;;;;;12.88;3.50;;;;;;;20.38;54.63;101128.00;4988380;28;119776;-71
2023/07/04 06:48:56;;;;;;;18.33;3.88;;;;;;;20.52;54.46;101123.31;4984932;28;118803;-71
2023/07/04 06:51:29;;;;;;;13.40;3.65;;;;;;;20.64;53.88;101129.53;4971125;28;124227;-71
2023/07/04 06:53:58;;;;;;;11.43;3.65;;;;;;;20.76;53.97;101131.22;4973313;28;124298;-71
2023/07/04 06:56:26;;;;;;;14.80;3.20;;;;;;;20.84;53.64;101128.75;4987675;28;119831;-71
2023/07/04 06:58:55;;;;;;;13.20;3.28;;;;;;;20.94;53.52;101131.50;4971626;28;119066;-71
2023/07/04 07:01:27;;;;;;;11.82;3.10;;;;;;;21.05;53.25;101136.84;4969908;28;123310;-71
2023/07/04 07:03:57;;;;;;;14.45;3.25;;;;;;;21.12;53.14;101138.03;4968363;28;122873;-71
2023/07/04 07:06:26;;;;;;;14.07;3.53;;;;;;;21.19;52.96;101136.53;4981375;28;119339;-71
2023/07/04 07:08:53;;;;;;;12.35;3.00;;;;;;;21.32;52.91;101149.81;4990141;28;118996;-70
2023/07/04 07:11:21;;;;;;;12.10;3.05;;;;;;;21.43;52.94;101143.47;4986768;28;124252;-71
2023/07/04 07:13:49;;;;;;;10.88;2.83;;;;;;;21.53;52.09;101147.13;4966543;28;123665;-71
2023/07/04 07:16:19;;;;;;;14.00;3.22;;;;;;;21.58;51.76;101160.19;4963285;28;118102;-70
2023/07/04 07:18:48;;;;;;;14.30;3.30;;;;;;;21.58;51.47;101158.34;4982912;28;118915;-71
2023/07/04 07:21:18;;;;;;;14.30;3.30;;;;;;;21.54;51.18;101151.53;4983096;28;124707;-71
2023/07/04 07:23:47;;;;;;;12.18;2.70;;;;;;;21.58;51.12;101144.03;4986438;28;123403;-70
2023/07/04 07:26:17;;;;;;;11.25;3.00;;;;;;;21.66;51.44;101146.03;4982735;28;119236;-70
2023/07/04 07:28:49;;;;;;;10.83;2.90;;;;;;;21.82;51.31;101156.34;4971457;28;119276;-71
2023/07/04 07:31:22;;;;;;;9.15;3.08;;;;;;;21.93;50.81;101149.03;4981964;28;123644;-71
2023/07/04 07:33:58;;;;;;;13.70;3.70;;;;;;;22.04;50.57;101139.13;4982810;28;124459;-70
2023/07/04 07:36:30;;;;;;;15.90;3.30;;;;;;;22.11;50.22;101145.66;4987303;28;119250;-71
2023/07/04 07:38:59;;;;;;;13.00;3.58;;;;;;;22.22;50.15;101159.06;4970307;28;118533;-70
2023/07/04 07:41:32;;;;;;;8.05;2.80;;;;;;;22.33;50.20;101158.97;4950959;28;122315;-71
2023/07/04 07:43:59;;;;;;;13.10;2.97;;;;;;;22.40;49.85;101161.16;4980024;28;122883;-71
2023/07/04 07:46:26;;;;;;;9.70;3.30;;;;;;;22.46;49.32;101166.00;4987068;28;120547;-70
2023/07/04 07:48:55;;;;;;;10.82;2.67;;;;;;;22.51;48.92;101147.53;4987557;28;120216;-71
2023/07/04 07:51:22;;;;;;;11.18;3.13;;;;;;;22.60;48.77;101152.06;4987026;28;124587;-71
2023/07/04 07:53:53;;;;;;;8.38;3.20;;;;;;;22.64;48.36;101158.91;4987267;28;124723;-71
2023/07/04 07:56:23;;;;;;;8.57;3.17;;;;;;;22.68;47.96;101159.50;4985163;28;118789;-70
2023/07/04 07:58:51;;;;;;;8.15;3.05;;;;;;;22.73;47.80;101159.91;4974274;28;117888;-70
2023/07/04 08:01:30;;;;;;;8.57;3.05;;;;;;;22.82;47.58;101166.31;4968771;28;124360;-69
2023/07/04 08:03:58;;;;;;;10.77;3.25;;;;;;;22.90;47.53;101163.75;4969080;28;123605;-70
2023/07/04 08:06:29;;;;;;;10.73;3.25;;;;;;;22.99;47.06;101157.50;4986467;28;119545;-71
2023/07/04 08:08:58;;;;;;;8.55;3.10;;;;;;;23.04;46.94;101160.69;4971607;28;120453;-71
2023/07/04 08:11:26;;;;;;;8.00;2.88;;;;;;;23.11;46.65;101156.41;4991552;28;123620;-71
2023/07/04 08:13:55;;;;;;;12.30;3.20;;;;;;;23.16;46.36;101163.22;4985323;28;124743;-70
2023/07/04 08:16:26;;;;;;;6.50;2.72;;;;;;;23.16;45.52;101152.41;4969622;28;119186;-71
2023/07/04 08:18:54;;;;;;;9.18;2.85;;;;;;;23.15;45.52;101148.00;4984998;28;119584;-70
2023/07/04 08:21:23;;;;;;;9.85;3.40;;;;;;;23.11;45.22;101156.41;4985942;28;123133;-71
2023/07/04 08:23:50;;;;;;;8.85;2.67;;;;;;;23.12;45.42;101163.50;4986562;28;123769;-71
2023/07/04 08:26:21;;;;;;;7.85;2.67;;;;;;;23.18;45.04;101166.63;4995937;28;119349;-71
2023/07/04 08:28:51;;;;;;;8.90;2.67;;;;;;;23.24;44.80;101166.06;4983416;28;119076;-71
2023/07/04 08:31:20;;;;;;;10.40;2.95;;;;;;;23.27;44.46;101171.19;4985804;28;123821;-71
2023/07/04 08:33:48;;;;;;;8.70;2.53;;;;;;;23.27;44.83;101168.47;4968630;28;123454;-71
2023/07/04 08:36:16;;;;;;;10.75;2.88;;;;;;;23.29;44.58;101174.59;4986715;28;120491;-71
2023/07/04 08:38:47;;;;;;;8.68;2.70;;;;;;;23.33;44.33;101178.72;4987077;28;120550;-70
2023/07/04 08:41:41;;;;;;;8.98;2.50;;;;;;;23.37;44.17;101182.81;4968487;28;124083;-70
2023/07/04 08:44:19;;;;;;;10.70;3.00;;;;;;;23.46;44.47;101181.97;4968481;28;122803;-71
2023/07/04 08:46:50;;;;;;;10.07;2.67;;;;;;;23.49;44.28;101170.88;4968932;28;118381;-71
2023/07/04 08:49:22;;;;;;;9.02;2.17;;;;;;;23.55;44.12;101163.19;4986297;28;119795;-71
2023/07/04 08:52:02;;;;;;;7.97;2.97;;;;;;;23.54;43.49;101166.88;4954254;28;123945;-71
2023/07/04 08:54:30;;;;;;;13.00;3.03;;;;;;;23.52;43.45;101167.00;4986573;28;123747;-71
2023/07/04 08:57:00;;;;;;;7.95;2.83;;;;;;;23.49;43.21;101164.63;4961259;28;118688;-71
2023/07/04 08:59:40;;;;;;;8.05;2.60;;;;;;;23.51;43.06;101168.88;4986239;28;121174;-70
2023/07/04 09:02:29;;;;;;;10.27;2.90;;;;;;;23.60;43.17;101166.28;4983537;28;124586;-70
2023/07/04 09:05:05;;;;;;;7.47;2.60;;;;;;;23.72;43.22;101170.53;4990912;28;124862;-70
2023/07/04 09:07:57;;;;;;;9.27;2.60;;;;;;;23.84;42.84;101174.78;4968756;28;120278;-71
2023/07/04 09:10:40;;;;;;;8.98;2.75;;;;;;;23.90;42.50;101174.19;4980068;28;119058;-71
2023/07/04 09:13:16;;;;;;;9.35;2.58;;;;;;;23.97;42.17;101189.84;4967733;28;123776;-71
2023/07/04 09:15:46;;;;;;;7.53;2.65;;;;;;;23.99;42.02;101177.00;4960218;28;123904;-71
2023/07/04 09:18:28;;;;;;;8.25;2.22;;;;;;;24.00;41.84;101184.13;4998360;28;119225;-69
2023/07/04 09:21:03;;;;;;;10.77;2.42;;;;;;;24.05;42.04;101187.22;4983952;28;118913;-71
2023/07/04 09:23:30;;;;;;;11.48;2.50;;;;;;;24.14;42.14;101186.34;4989050;28;123828;-71
2023/07/04 09:25:58;;;;;;;6.88;2.13;;;;;;;24.25;41.80;101196.97;4974134;28;122896;-70
2023/07/04 09:28:29;;;;;;;8.70;2.40;;;;;;;24.36;41.07;101200.50;4992147;28;120634;-71
2023/07/04 09:30:58;;;;;;;7.78;2.55;;;;;;;24.39;40.37;101197.47;4971128;28;118688;-71
2023/07/04 09:33:30;;;;;;;6.50;1.98;;;;;;;24.39;40.22;101208.28;4970507;28;123590;-70
2023/07/04 09:35:57;;;;;;;6.50;2.28;;;;;;;24.41;40.49;101209.00;4967249;28;123758;-71
2023/07/04 09:38:25;;;;;;;8.50;2.13;;;;;;;24.43;40.44;101204.28;4964487;28;119797;-71
2023/07/04 09:40:55;;;;;;;7.68;2.03;;;;;;;24.48;40.35;101199.28;4970946;28;119788;-70
2023/07/04 09:43:32;;;;;;;9.70;2.30;;;;;;;24.56;40.13;101212.94;4984471;28;123632;-71
2023/07/04 09:46:24;;;;;;;8.73;2.00;;;;;;;24.61;39.98;101221.47;4986992;28;125325;-71
2023/07/04 09:48:54;;;;;;;4.95;1.90;;;;;;;24.62;39.58;101215.06;4985385;28;119707;-72
2023/07/04 09:51:30;;;;;;;9.23;2.35;;;;;;;24.63;39.63;101207.78;4973390;28;118203;-72
2023/07/04 09:54:19;;;;;;;9.85;2.20;;;;;;;24.68;39.66;101211.72;4988828;28;125662;-71
2023/07/04 09:56:46;;;;;;;7.75;2.20;;;;;;;24.78;39.52;101216.22;4979511;28;123551;-73
2023/07/04 09:59:21;;;;;;;7.03;1.70;;;;;;;24.89;39.15;101226.00;4988737;28;119877;-71
2023/07/04 10:01:50;;;;;;;7.65;2.10;;;;;;;25.02;38.82;101208.34;4958649;28;118767;-72
2023/07/04 10:04:35;;;;;;;7.85;2.00;;;;;;;25.16;38.60;101206.94;4952933;28;123274;-72
2023/07/04 10:07:10;;;;;;;;;;;;;;;25.22;39.63;101209.06;4988969;28;125668;-71
2023/07/04 10:09:45;;;;;;;7.25;2.10;;;;;;;25.28;38.90;101202.19;4968034;28;118974;-72
2023/07/04 10:12:13;;;;;;;;;;;;;;;25.35;40.23;101200.53;4970141;28;118568;-71
2023/07/04 10:14:47;;;;;;;7.95;2.10;;;;;;;25.51;39.44;101213.38;4984490;28;124246;-70
2023/07/04 10:17:29;;;;;;;8.52;2.28;;;;;;;25.60;38.52;101214.31;4980434;28;126031;-70
2023/07/04 10:20:00;;;;;;;5.70;1.70;;;;;;;25.63;37.68;101205.81;4972868;28;120284;-71
2023/07/04 10:22:34;;;;;;;6.72;2.17;;;;;;;25.64;37.51;101207.53;4968088;28;119311;-70
2023/07/04 10:25:07;;;;;;;6.72;2.25;;;;;;;25.67;37.88;101199.06;4968563;28;123871;-71
2023/07/04 10:27:36;;;;;;;8.43;2.70;;;;;;;25.77;38.03;101201.69;4978765;28;123552;-71
2023/07/04 10:30:08;;;;;;;10.30;2.20;;;;;;;25.87;38.20;101201.59;4955861;28;118091;-71
2023/07/04 10:32:48;;;;;;;8.52;2.30;;;;;;;25.91;37.78;101203.81;4965942;28;118793;-69
2023/07/04 10:35:25;;;;;;;6.32;2.05;;;;;;;26.00;38.14;101200.16;4974107;28;124376;-69
2023/07/04 10:37:58;;;;;;;6.28;2.28;;;;;;;26.08;37.76;101202.06;4959373;28;123431;-69
2023/07/04 10:40:27;;;;;;;11.73;2.85;;;;;;;26.14;37.16;101204.13;4985938;28;119104;-70
2023/07/04 10:43:08;;;;;;;7.55;2.13;;;;;;;26.15;36.96;101194.97;4999991;28;119010;-69
2023/07/04 10:45:40;;;;;;;6.93;2.42;;;;;;;26.17;37.19;101198.38;4985160;28;124052;-69
2023/07/04 10:48:22;;;;;;;5.57;2.15;;;;;;;26.22;37.00;101206.03;4985644;28;123847;-69
2023/07/04 10:50:55;;;;;;;5.50;2.10;;;;;;;26.26;36.68;101206.53;4970027;28;119447;-69
2023/07/04 10:53:22;;;;;;;8.05;2.53;;;;;;;26.29;37.13;101211.66;4985610;28;119261;-68
2023/07/04 10:56:14;;;;;;;5.80;2.35;;;;;;;26.31;36.44;101215.06;4985718;28;124098;-69
2023/07/04 10:58:44;;;;;;;9.02;2.33;;;;;;;26.32;36.49;101197.75;4983652;28;123671;-69
2023/07/04 11:01:19;;;;;;;10.18;2.15;;;;;;;26.36;36.66;101202.69;4968465;28;119333;-69
2023/07/04 11:03:57;;;;;;;4.72;2.15;;;;;;;26.42;36.54;101212.88;4986077;28;119175;-69
2023/07/04 11:06:32;;;;;;;6.03;2.10;;;;;;;26.47;36.20;101204.25;4984779;28;124176;-68
2023/07/04 11:09:00;;;;;;;7.25;1.80;;;;;;;26.55;36.40;101204.28;4987252;28;123709;-69
2023/07/04 11:11:29;;;;;;;5.85;2.05;;;;;;;26.56;35.37;101203.28;4987105;28;120588;-69
2023/07/04 11:14:08;;;;;;;4.90;1.92;;;;;;;26.48;35.00;101214.09;4985120;28;120562;-68
2023/07/04 11:16:40;;;;;;;5.75;1.90;;;;;;;26.33;35.01;101213.03;4979304;28;124514;-69
2023/07/04 11:19:29;;;;;;;6.80;2.05;;;;;;;26.17;35.56;101220.09;4983302;28;123909;-69
2023/07/04 11:22:00;;;;;;;5.35;2.22;;;;;;;26.06;35.32;101223.09;4984352;28;119219;-68
2023/07/04 11:24:40;;;;;;;6.55;2.50;;;;;;;25.99;35.43;101211.16;4963792;28;117936;-68
2023/07/04 11:27:17;;;;;;;5.18;2.08;;;;;;;25.88;35.41;101214.13;4982929;28;125196;-68
2023/07/04 11:29:53;;;;;;;5.47;2.40;;;;;;;25.79;35.45;101216.78;4970711;28;123885;-68